Terminal Aerodrome Forecast
Issued by NWS Cleveland, OH

Home | Current Version | Previous Version | Graphics & Text | Print | Product List | Glossary Off
Versions: 1 2 3 4 5 6 7 8 9 10 11 12 13 14 15 16 17 18 19 20

723
FTUS41 KCLE 232338
TAFCAK
TAF
KCAK 232338Z 2400/2424 27010G18KT P6SM OVC025
     FM240200 28008KT P6SM OVC030
     FM240800 01004KT 4SM BR OVC015
     FM241100 01004KT P6SM OVC010
     FM241400 05006KT P6SM VCSH OVC008
     FM241700 10010KT 4SM -RA OVC005=

USA.gov is the U.S. government's official web portal to all federal, state and local government web resources and services.